Flight Track Log - Related Links

Times and Time Zones

All times are in EDT time to prevent confusion due to time zone crossing. See the GJS3706 flight status page for this flight to view local times or setup timezone preferences in your user account.

Time Position Orientation Groundspeed Altitude Reporting Facility
EDT Latitude Longitude Course Direction KTS MPH feet Rate Location/Type
Sun 12:05:51 PM 42.6975 -73.8950 250° West 253 291 3,100  Level Boston Center
Sun 12:07:00 PM 43.0104 -74.0930 279° West  Level FlightAware Approximate
Sun 12:07:07 PM 42.7083 -74.0225 277° West 269 310 6,700  Level Boston Center
Sun 12:08:00 PM 43.0218 -74.2213 276° West  Level FlightAware Approximate
Sun 12:08:07 PM 42.7594 -74.0831 319° Northwest 255 293 9,300  Level Boston Center
Sun 12:09:00 PM 43.0310 -74.3499 276° West  Level FlightAware Approximate
Sun 12:09:07 PM 42.8464 -74.1308 338° Northwest 271 312 11,400  Level Boston Center
Sun 12:10:00 PM 43.0333 -74.4790 270° West  Level FlightAware Approximate
Sun 12:10:07 PM 42.9292 -74.1728 340° North 333 383 12,400  Level Boston Center
Sun 12:11:07 PM 43.0325 -74.2325 337° Northwest 359 413 15,000 2,400 Climbing Boston Center
Sun 12:12:07 PM 43.1169 -74.2803 338° Northwest 364 419 17,200 1,800 Climbing Boston Center
Sun 12:13:07 PM 43.1914 -74.3225 338° Northwest 364 419 18,600 950 Climbing Boston Center
Sun 12:14:07 PM 43.2264 -74.4689 288° West 334 384 19,100 600 Climbing Boston Center
Sun 12:15:07 PM 43.2194 -74.6197 266° West 354 407 19,800 850 Climbing Boston Center
Sun 12:16:07 PM 43.2144 -74.7733 267° West 385 443 20,800 1,250 Climbing Boston Center
Sun 12:17:07 PM 43.2089 -74.9269 267° West 405 466 22,300 1,450 Climbing Boston Center
Sun 12:18:07 PM 43.2033 -75.0836 267° West 405 466 23,700 1,200 Climbing Boston Center
Sun 12:19:07 PM 43.1983 -75.2058 267° West 405 466 24,700 1,050 Climbing Boston Center
Sun 12:20:07 PM 43.1939 -75.3908 268° West 405 466 25,800 945 Climbing Boston Center
Sun 12:21:52 PM 43.1819 -75.6853 267° West 423 487 27,300 873 Climbing Cleveland Center
Sun 12:22:52 PM 43.1761 -75.8453 267° West 423 487 28,200 900 Climbing Cleveland Center
Sun 12:23:52 PM 43.1700 -76.0025 267° West 423 487 29,100 950 Climbing Cleveland Center
Sun 12:24:52 PM 43.1656 -76.1567 268° West 423 487 30,100 1,000 Climbing Cleveland Center
Sun 12:25:52 PM 43.1608 -76.3136 268° West 423 487 31,100 1,000 Climbing Cleveland Center
Sun 12:26:52 PM 43.1622 -76.4644 271° West 418 481 32,100 1,000 Climbing Cleveland Center
Sun 12:27:52 PM 43.1592 -76.6156 268° West 406 467 33,100 1,000 Climbing Cleveland Center
Sun 12:28:52 PM 43.1614 -76.7433 271° West 394 453 34,100 1,000 Climbing Cleveland Center
Sun 12:29:52 PM 43.1597 -76.8858 269° West 383 441 35,100 1,000 Climbing Cleveland Center
Sun 12:30:52 PM 43.1600 -77.0253 270° West 378 435 36,100 950 Climbing Cleveland Center
Sun 12:31:52 PM 43.1581 -77.1650 269° West 378 435 37,000 700 Climbing Cleveland Center
Sun 12:32:52 PM 43.1556 -77.2989 269° West 367 422 37,500 500 Climbing Cleveland Center
Sun 12:33:52 PM 43.1550 -77.4328 270° West 362 417 38,000 250 Climbing Cleveland Center
Sun 12:34:52 PM 43.1547 -77.5722 270° West 362 417 38,000  Level Cleveland Center
Sun 12:35:52 PM 43.1519 -77.7089 268° West 368 423 38,000  Level Cleveland Center
Sun 12:36:52 PM 43.1511 -77.8514 270° West 368 423 38,000  Level Cleveland Center
Sun 12:37:52 PM 43.1506 -78.0108 270° West 378 435 38,000  Level Cleveland Center
Sun 12:38:52 PM 43.1475 -78.1561 268° West 383 441 38,000  Level Cleveland Center
Sun 12:39:52 PM 43.1442 -78.3042 268° West 383 441 38,000  Level Cleveland Center
Sun 12:40:52 PM 43.1408 -78.4522 268° West 383 441 38,000  Level Cleveland Center
Sun 12:42:52 PM 43.1314 -78.7542 268° West 388 447 38,000  Level Cleveland Center
Sun 12:43:52 PM 43.1275 -78.9050 268° West 394 453 38,000  Level Cleveland Center
Sun 12:45:12 PM 43.1167 -79.0833 265° West 410 472 38,000  Level Toronto Center
Sun 12:46:12 PM 43.1000 -79.2500 262° West 410 472 38,000  Level Toronto Center
Sun 12:47:12 PM 43.1000 -79.4000 270° West 420 483 38,000  Level Toronto Center
Sun 12:48:12 PM 43.1000 -79.5667 270° West 420 483 38,000  Level Toronto Center
Sun 12:49:12 PM 43.0833 -79.7167 261° West 420 483 38,000  Level Toronto Center
Sun 12:50:12 PM 43.0833 -79.8833 270° West 420 483 38,000  Level Toronto Center
Sun 12:51:12 PM 43.0833 -80.0500 270° West 420 483 38,000  Level Toronto Center
Sun 12:52:12 PM 43.0667 -80.2333 263° West 430 495 38,000  Level Toronto Center
Sun 12:53:12 PM 43.0667 -80.3833 270° West 430 495 38,000  Level Toronto Center
Sun 12:54:12 PM 43.0667 -80.5167 270° West 430 495 38,000  Level Toronto Center
Sun 12:56:00 PM 43.0589 -80.7707 268° West  Level FlightAware Approximate
Sun 12:56:12 PM 43.0333 -80.8667 268° West 430 495 38,000  Level Toronto Center
Sun 12:57:13 PM 43.0167 -81.0167 261° West 430 495 38,000  Level Toronto Center
Sun 12:58:13 PM 43.0167 -81.1833 270° West 430 495 38,000  Level Toronto Center
Sun 12:59:13 PM 43.0167 -81.3667 270° West 430 495 38,000  Level Toronto Center
Sun 01:00:13 PM 43.0167 -81.5333 270° West 440 506 38,000  Level Toronto Center
Sun 01:01:13 PM 43.0167 -81.6833 270° West 440 506 38,000  Level Toronto Center
Sun 01:02:13 PM 43.0167 -81.8500 270° West 440 506 38,000  Level Toronto Center
Sun 01:03:13 PM 43.0000 -82.0333 263° West 440 506 38,000  Level Toronto Center
Sun 01:04:13 PM 43.0000 -82.1833 270° West 440 506 38,000  Level Toronto Center
Sun 01:05:13 PM 43.0000 -82.3500 270° West 440 506 38,000  Level Toronto Center
Sun 01:06:13 PM 43.0000 -82.5333 270° West 440 506 38,000  Level Toronto Center
Sun 01:07:16 PM 43.0014 -82.6981 271° West 441 507 38,000  Level Cleveland Center
Sun 01:08:16 PM 42.9983 -82.8656 269° West 441 507 38,000  Level Cleveland Center
Sun 01:09:16 PM 42.9906 -83.0356 266° West 441 507 38,000  Level Cleveland Center
Sun 01:10:16 PM 42.9850 -83.2000 267° West 441 507 38,000 -350 Level Cleveland Center
Sun 01:11:16 PM 42.9786 -83.3756 267° West 447 514 37,300 -900 Descending Cleveland Center
Sun 01:13:16 PM 42.9675 -83.7300 268° West 468 539 35,300 -1,067 Descending Cleveland Center
Sun 01:14:16 PM 42.9497 -83.9219 263° West 473 544 34,100 -1,100 Descending Cleveland Center
Sun 01:15:16 PM 42.9319 -84.0969 262° West 473 544 33,100 -1,000 Descending Cleveland Center
Sun 01:16:16 PM 42.9161 -84.2717 263° West 473 544 32,100 -489 Descending Cleveland Center
Sun 01:17:31 PM 42.8961 -84.4606 262° West 466 536 32,000 -44 Descending Chicago Center
Sun 01:18:33 PM 42.8747 -84.6719 262° West 470 541 32,000  Level Chicago Center
Sun 01:19:36 PM 42.8567 -84.8483 262° West 470 541 32,000 -336 Level Chicago Center
Sun 01:20:38 PM 42.8389 -85.0203 262° West 461 531 31,300 -1,161 Descending Chicago Center
Sun 01:21:40 PM 42.8217 -85.1847 262° West 444 511 29,600 -1,645 Descending Chicago Center
Sun 01:22:42 PM 42.8028 -85.3469 261° West 436 502 27,900 -1,645 Descending Chicago Center
Sun 01:23:44 PM 42.7858 -85.5022 262° West 421 484 26,200 -1,645 Descending Chicago Center
Sun 01:24:46 PM 42.7583 -85.6528 256° West 411 473 24,500 -1,839 Descending Chicago Center
Sun 01:25:48 PM 42.7258 -85.8325 256° West 406 467 22,400 -1,500 Descending Chicago Center
Sun 01:26:50 PM 42.6986 -85.9800 256° West 403 464 21,400 -968 Descending Chicago Center
Sun 01:27:52 PM 42.6733 -86.1236 257° West 393 452 20,400 -677 Descending Chicago Center
Sun 01:28:54 PM 42.6469 -86.2661 256° West 389 448 20,000 -194 Descending Chicago Center
Sun 01:29:56 PM 42.6200 -86.4053 255° West 381 438 20,000 -1,129 Level Chicago Center
Sun 01:31:00 PM 42.5802 -86.5504 256° West  Level FlightAware Approximate
Sun 01:32:00 PM 42.5661 -86.6917 256° West 390 449 16,500  Level Chicago Center
Sun 01:33:02 PM 42.5239 -86.8631 252° West 399 459 13,700 -2,592 Descending Chicago Center
Sun 01:34:05 PM 42.4892 -86.9928 250° West 373 429 11,100 -1,388 Descending Chicago Center
Sun 01:35:42 PM 42.4333 -87.2000 250° West 365 420 10,000 -437 Descending Chicago TRACON
Sun 01:36:36 PM 42.4000 -87.3167 249° West 363 418 10,000  Level Chicago TRACON
Sun 01:37:11 PM 42.3842 -87.3689 248° West 361 415 10,000  Level Chicago Center
Sun 01:38:13 PM 42.3475 -87.5022 250° West 359 413 10,000  Level Chicago Center
Sun 01:39:15 PM 42.2811 -87.5981 227° Southwest 356 410 10,000  Level Chicago Center
Sun 01:40:17 PM 42.1900 -87.6925 218° Southwest 344 396 10,000 -629 Level Chicago Center
Sun 01:41:19 PM 42.1236 -87.7619 218° Southwest 305 351 8,700 -1,258 Descending Chicago Center
Sun 01:42:21 PM 42.0917 -87.8614 247° West 315 362 7,400 -823 Descending Chicago Center
Sun 01:43:23 PM 42.0917 -87.9689 270° West 297 342 7,000 -435 Descending Chicago Center
Sun 01:44:25 PM 42.0911 -88.0811 270° West 261 300 6,500 -677 Descending Chicago Center
Sun 01:45:27 PM 42.0906 -88.1711 270° West 246 283 5,600 -768 Descending Chicago Center
Sun 01:46:30 PM 42.0856 -88.2589 266° West 242 278 4,900 -720 Descending Chicago Center
Sun 01:47:32 PM 42.0264 -88.2700 188° South 222 255 4,100 -435 Descending Chicago Center
Sun 01:48:34 PM 41.9772 -88.2489 162° South 219 252 4,000 -48 Descending Chicago Center
Sun 01:49:36 PM 41.9656 -88.1842 104° East 196 226 4,000 -242 Level Chicago Center
Sun 01:50:38 PM 41.9692 -88.0981 87° East 194 223 3,500 -484 Descending Chicago Center

Login

Don't have an account? Register now (free) for customized features, flight alerts, and more!